SEKJK ESSA-ESSD
Flight info
| Callsign | SEKJK |
|---|---|
| Flight time | 0h 49m |
| Altitude | 1500 |
| Route | DCT |
| Aircraft | C172/L-S/N |
Departure
| Time | 2026-05-05 15:05 |
|---|---|
| Airport | Stockholm-Arlanda Airport (ESSA) |
Arrival
| Time | 2026-05-05 15:54 |
|---|---|
| Airport | Dala Airport (ESSD) |
| Time | Latitude | Longitude | Altitude | Speed | Heading |
|---|---|---|---|---|---|
| 2026-05-05 14:48 | 59.63847 | 17.91833 | 128 ft | 0 kts | 280° |
| 2026-05-05 15:00 | 59.63862 | 17.91826 | 128 ft | 4 kts | 18° |
| 2026-05-05 15:00 | 59.63903 | 17.91857 | 128 ft | 10 kts | 30° |
| 2026-05-05 15:01 | 59.63959 | 17.91919 | 128 ft | 6 kts | 28° |
| 2026-05-05 15:01 | 59.63994 | 17.91944 | 128 ft | 8 kts | 11° |
| 2026-05-05 15:01 | 59.64055 | 17.91965 | 128 ft | 13 kts | 9° |
| 2026-05-05 15:01 | 59.64116 | 17.91985 | 128 ft | 5 kts | 1° |
| 2026-05-05 15:02 | 59.64141 | 17.91942 | 128 ft | 3 kts | 284° |
| 2026-05-05 15:02 | 59.64157 | 17.91851 | 128 ft | 8 kts | 333° |
| 2026-05-05 15:02 | 59.64215 | 17.91862 | 128 ft | 12 kts | 11° |
| 2026-05-05 15:02 | 59.64280 | 17.91884 | 128 ft | 4 kts | 9° |
| 2026-05-05 15:03 | 59.64312 | 17.91894 | 128 ft | 12 kts | 9° |
| 2026-05-05 15:03 | 59.64387 | 17.91912 | 128 ft | 8 kts | 337° |
| 2026-05-05 15:03 | 59.64410 | 17.91819 | 128 ft | 8 kts | 279° |
| 2026-05-05 15:03 | 59.64422 | 17.91692 | 128 ft | 11 kts | 279° |
| 2026-05-05 15:04 | 59.64438 | 17.91595 | 128 ft | 10 kts | 320° |
| 2026-05-05 15:04 | 59.64593 | 17.91624 | 128 ft | 44 kts | 8° |
| 2026-05-05 15:04 | 59.65030 | 17.91791 | 129 ft | 80 kts | 5° |
| 2026-05-05 15:04 | 59.65559 | 17.92078 | 327 ft | 79 kts | 10° |
| 2026-05-05 15:05 | 59.66415 | 17.92462 | 559 ft | 81 kts | 348° |
| 2026-05-05 15:05 | 59.66656 | 17.92153 | 630 ft | 78 kts | 304° |
| 2026-05-05 15:05 | 59.66850 | 17.91191 | 829 ft | 75 kts | 296° |
| 2026-05-05 15:06 | 59.67071 | 17.90246 | 984 ft | 78 kts | 296° |
| 2026-05-05 15:06 | 59.67310 | 17.89233 | 1138 ft | 86 kts | 296° |
| 2026-05-05 15:06 | 59.67581 | 17.88087 | 1185 ft | 98 kts | 296° |
| 2026-05-05 15:06 | 59.67810 | 17.87118 | 1229 ft | 101 kts | 296° |
| 2026-05-05 15:07 | 59.68118 | 17.85820 | 1231 ft | 107 kts | 296° |
| 2026-05-05 15:07 | 59.68366 | 17.84744 | 1221 ft | 110 kts | 295° |
| 2026-05-05 15:07 | 59.68664 | 17.83427 | 1210 ft | 112 kts | 295° |
| 2026-05-05 15:07 | 59.68920 | 17.82322 | 1204 ft | 112 kts | 296° |
| 2026-05-05 15:08 | 59.69243 | 17.80918 | 1201 ft | 112 kts | 295° |
| 2026-05-05 15:08 | 59.69569 | 17.79525 | 1200 ft | 112 kts | 295° |
| 2026-05-05 15:08 | 59.69893 | 17.78118 | 1199 ft | 112 kts | 296° |
| 2026-05-05 15:08 | 59.70216 | 17.76714 | 1200 ft | 112 kts | 295° |
| 2026-05-05 15:09 | 59.70540 | 17.75321 | 1200 ft | 112 kts | 295° |
| 2026-05-05 15:09 | 59.70860 | 17.73912 | 1200 ft | 112 kts | 295° |
| 2026-05-05 15:09 | 59.71178 | 17.72508 | 1200 ft | 112 kts | 295° |
| 2026-05-05 15:09 | 59.71497 | 17.71100 | 1200 ft | 112 kts | 295° |
| 2026-05-05 15:10 | 59.71786 | 17.69820 | 1200 ft | 112 kts | 295° |
| 2026-05-05 15:10 | 59.72174 | 17.68494 | 1205 ft | 111 kts | 306° |
| 2026-05-05 15:10 | 59.72305 | 17.68137 | 1210 ft | 111 kts | 306° |
| 2026-05-05 15:10 | 59.72487 | 17.67656 | 1209 ft | 111 kts | 307° |
| 2026-05-05 15:11 | 59.72898 | 17.66566 | 1201 ft | 112 kts | 306° |
| 2026-05-05 15:11 | 59.73214 | 17.65681 | 1201 ft | 112 kts | 305° |
| 2026-05-05 15:11 | 59.73662 | 17.64418 | 1199 ft | 112 kts | 305° |
| 2026-05-05 15:11 | 59.74109 | 17.63159 | 1199 ft | 112 kts | 305° |
| 2026-05-05 15:12 | 59.74556 | 17.61896 | 1200 ft | 112 kts | 305° |
| 2026-05-05 15:12 | 59.75001 | 17.60640 | 1200 ft | 112 kts | 305° |
| 2026-05-05 15:12 | 59.75448 | 17.59379 | 1200 ft | 112 kts | 305° |
| 2026-05-05 15:12 | 59.75894 | 17.58121 | 1200 ft | 112 kts | 305° |
| 2026-05-05 15:13 | 59.76340 | 17.56859 | 1200 ft | 112 kts | 305° |
| 2026-05-05 15:13 | 59.76787 | 17.55598 | 1200 ft | 112 kts | 305° |
| 2026-05-05 15:13 | 59.77231 | 17.54343 | 1200 ft | 112 kts | 305° |
| 2026-05-05 15:13 | 59.77677 | 17.53082 | 1200 ft | 112 kts | 305° |
| 2026-05-05 15:14 | 59.78124 | 17.51820 | 1200 ft | 112 kts | 305° |
| 2026-05-05 15:14 | 59.78569 | 17.50561 | 1200 ft | 112 kts | 305° |
| 2026-05-05 15:14 | 59.79016 | 17.49300 | 1200 ft | 112 kts | 305° |
| 2026-05-05 15:14 | 59.79459 | 17.48046 | 1200 ft | 112 kts | 305° |
| 2026-05-05 15:15 | 59.79909 | 17.46773 | 1200 ft | 112 kts | 305° |
| 2026-05-05 15:15 | 59.80353 | 17.45518 | 1200 ft | 112 kts | 305° |
| 2026-05-05 15:15 | 59.80800 | 17.44253 | 1200 ft | 112 kts | 306° |
| 2026-05-05 15:15 | 59.81247 | 17.42994 | 1199 ft | 112 kts | 306° |
| 2026-05-05 15:16 | 59.81696 | 17.41729 | 1201 ft | 112 kts | 306° |
| 2026-05-05 15:16 | 59.82144 | 17.40471 | 1200 ft | 112 kts | 306° |
| 2026-05-05 15:16 | 59.82593 | 17.39207 | 1200 ft | 112 kts | 306° |
| 2026-05-05 15:16 | 59.83040 | 17.37947 | 1200 ft | 112 kts | 306° |
| 2026-05-05 15:17 | 59.83490 | 17.36681 | 1200 ft | 112 kts | 306° |
| 2026-05-05 15:17 | 59.83938 | 17.35419 | 1200 ft | 112 kts | 306° |
| 2026-05-05 15:17 | 59.84386 | 17.34157 | 1200 ft | 112 kts | 306° |
| 2026-05-05 15:17 | 59.84835 | 17.32892 | 1200 ft | 112 kts | 306° |
| 2026-05-05 15:18 | 59.85284 | 17.31629 | 1200 ft | 112 kts | 306° |
| 2026-05-05 15:18 | 59.85731 | 17.30369 | 1200 ft | 112 kts | 306° |
| 2026-05-05 15:18 | 59.85941 | 17.29777 | 1200 ft | 112 kts | 306° |
| 2026-05-05 15:18 | 59.86204 | 17.29036 | 1203 ft | 112 kts | 306° |
| 2026-05-05 15:19 | 59.86642 | 17.27801 | 1275 ft | 108 kts | 306° |
| 2026-05-05 15:19 | 59.87067 | 17.26597 | 1336 ft | 106 kts | 306° |
| 2026-05-05 15:19 | 59.87486 | 17.25409 | 1404 ft | 105 kts | 306° |
| 2026-05-05 15:19 | 59.87902 | 17.24226 | 1476 ft | 104 kts | 306° |
| 2026-05-05 15:20 | 59.88320 | 17.23038 | 1509 ft | 106 kts | 306° |
| 2026-05-05 15:20 | 59.88748 | 17.21817 | 1514 ft | 109 kts | 306° |
| 2026-05-05 15:20 | 59.89185 | 17.20575 | 1508 ft | 111 kts | 306° |
| 2026-05-05 15:20 | 59.89627 | 17.19318 | 1504 ft | 111 kts | 306° |
| 2026-05-05 15:21 | 59.90071 | 17.18056 | 1501 ft | 111 kts | 306° |
| 2026-05-05 15:21 | 59.90513 | 17.16797 | 1500 ft | 111 kts | 306° |
| 2026-05-05 15:21 | 59.90957 | 17.15536 | 1500 ft | 111 kts | 306° |
| 2026-05-05 15:21 | 59.91400 | 17.14275 | 1500 ft | 111 kts | 306° |
| 2026-05-05 15:22 | 59.91844 | 17.13012 | 1500 ft | 111 kts | 306° |
| 2026-05-05 15:22 | 59.92245 | 17.11871 | 1500 ft | 111 kts | 306° |
| 2026-05-05 15:22 | 59.92590 | 17.10891 | 1500 ft | 111 kts | 306° |
| 2026-05-05 15:22 | 59.93034 | 17.09627 | 1500 ft | 111 kts | 306° |
| 2026-05-05 15:23 | 59.93475 | 17.08370 | 1500 ft | 111 kts | 306° |
| 2026-05-05 15:23 | 59.93919 | 17.07107 | 1500 ft | 111 kts | 306° |
| 2026-05-05 15:23 | 59.94363 | 17.05844 | 1500 ft | 111 kts | 306° |
| 2026-05-05 15:23 | 59.94806 | 17.04583 | 1500 ft | 111 kts | 306° |
| 2026-05-05 15:24 | 59.95249 | 17.03321 | 1500 ft | 111 kts | 306° |
| 2026-05-05 15:24 | 59.95692 | 17.02060 | 1500 ft | 111 kts | 306° |
| 2026-05-05 15:24 | 59.96135 | 17.00798 | 1500 ft | 111 kts | 306° |
| 2026-05-05 15:24 | 59.96578 | 16.99535 | 1500 ft | 111 kts | 306° |
| 2026-05-05 15:25 | 59.97022 | 16.98271 | 1500 ft | 111 kts | 306° |
| 2026-05-05 15:25 | 59.97467 | 16.97005 | 1494 ft | 113 kts | 305° |
| 2026-05-05 15:25 | 59.97911 | 16.95733 | 1511 ft | 112 kts | 305° |
| 2026-05-05 15:25 | 59.98355 | 16.94458 | 1505 ft | 113 kts | 305° |
| 2026-05-05 15:26 | 59.98801 | 16.93174 | 1505 ft | 113 kts | 305° |
| 2026-05-05 15:26 | 59.99248 | 16.91889 | 1503 ft | 113 kts | 305° |
| 2026-05-05 15:26 | 59.99693 | 16.90609 | 1503 ft | 113 kts | 305° |
| 2026-05-05 15:26 | 60.00140 | 16.89324 | 1504 ft | 113 kts | 305° |
| 2026-05-05 15:27 | 60.00588 | 16.88035 | 1504 ft | 113 kts | 305° |
| 2026-05-05 15:27 | 60.01033 | 16.86758 | 1503 ft | 113 kts | 305° |
| 2026-05-05 15:27 | 60.01477 | 16.85479 | 1504 ft | 113 kts | 305° |
| 2026-05-05 15:27 | 60.01928 | 16.84183 | 1504 ft | 113 kts | 305° |
| 2026-05-05 15:28 | 60.02373 | 16.82902 | 1504 ft | 113 kts | 305° |
| 2026-05-05 15:28 | 60.02819 | 16.81618 | 1504 ft | 113 kts | 305° |
| 2026-05-05 15:28 | 60.03265 | 16.80334 | 1504 ft | 113 kts | 305° |
| 2026-05-05 15:28 | 60.03712 | 16.79049 | 1504 ft | 113 kts | 305° |
| 2026-05-05 15:29 | 60.04157 | 16.77768 | 1504 ft | 113 kts | 305° |
| 2026-05-05 15:29 | 60.04604 | 16.76481 | 1504 ft | 113 kts | 305° |
| 2026-05-05 15:29 | 60.05051 | 16.75193 | 1504 ft | 113 kts | 305° |
| 2026-05-05 15:29 | 60.05498 | 16.73905 | 1504 ft | 113 kts | 305° |
| 2026-05-05 15:30 | 60.05944 | 16.72619 | 1504 ft | 113 kts | 305° |
| 2026-05-05 15:30 | 60.06390 | 16.71334 | 1504 ft | 113 kts | 305° |
| 2026-05-05 15:30 | 60.06836 | 16.70049 | 1504 ft | 113 kts | 305° |
| 2026-05-05 15:30 | 60.07282 | 16.68765 | 1504 ft | 113 kts | 305° |
| 2026-05-05 15:31 | 60.07728 | 16.67480 | 1504 ft | 113 kts | 305° |
| 2026-05-05 15:31 | 60.08175 | 16.66190 | 1504 ft | 113 kts | 305° |
| 2026-05-05 15:31 | 60.08621 | 16.64906 | 1504 ft | 113 kts | 305° |
| 2026-05-05 15:31 | 60.09069 | 16.63615 | 1504 ft | 113 kts | 305° |
| 2026-05-05 15:32 | 60.09514 | 16.62329 | 1504 ft | 113 kts | 305° |
| 2026-05-05 15:32 | 60.09961 | 16.61041 | 1504 ft | 113 kts | 305° |
| 2026-05-05 15:32 | 60.10406 | 16.59757 | 1504 ft | 113 kts | 305° |
| 2026-05-05 15:32 | 60.10856 | 16.58462 | 1504 ft | 113 kts | 305° |
| 2026-05-05 15:33 | 60.11302 | 16.57175 | 1504 ft | 113 kts | 305° |
| 2026-05-05 15:33 | 60.11749 | 16.55885 | 1504 ft | 113 kts | 305° |
| 2026-05-05 15:33 | 60.12195 | 16.54599 | 1503 ft | 113 kts | 305° |
| 2026-05-05 15:33 | 60.12642 | 16.53311 | 1504 ft | 113 kts | 305° |
| 2026-05-05 15:34 | 60.13092 | 16.52015 | 1504 ft | 113 kts | 305° |
| 2026-05-05 15:34 | 60.13538 | 16.50727 | 1504 ft | 113 kts | 305° |
| 2026-05-05 15:34 | 60.13988 | 16.49430 | 1497 ft | 114 kts | 304° |
| 2026-05-05 15:34 | 60.14429 | 16.48140 | 1518 ft | 112 kts | 304° |
| 2026-05-05 15:35 | 60.14873 | 16.46837 | 1508 ft | 113 kts | 304° |
| 2026-05-05 15:35 | 60.15315 | 16.45538 | 1507 ft | 113 kts | 304° |
| 2026-05-05 15:35 | 60.15757 | 16.44239 | 1506 ft | 113 kts | 304° |
| 2026-05-05 15:35 | 60.16201 | 16.42933 | 1507 ft | 113 kts | 304° |
| 2026-05-05 15:36 | 60.16641 | 16.41638 | 1508 ft | 113 kts | 304° |
| 2026-05-05 15:36 | 60.17084 | 16.40337 | 1507 ft | 113 kts | 304° |
| 2026-05-05 15:36 | 60.17527 | 16.39033 | 1507 ft | 113 kts | 304° |
| 2026-05-05 15:36 | 60.17970 | 16.37732 | 1508 ft | 113 kts | 304° |
| 2026-05-05 15:37 | 60.18322 | 16.36695 | 1508 ft | 113 kts | 304° |
| 2026-05-05 15:37 | 60.18704 | 16.35572 | 1507 ft | 113 kts | 304° |
| 2026-05-05 15:37 | 60.18923 | 16.34929 | 1507 ft | 113 kts | 304° |
| 2026-05-05 15:37 | 60.19366 | 16.33624 | 1507 ft | 113 kts | 304° |
| 2026-05-05 15:38 | 60.19808 | 16.32325 | 1508 ft | 113 kts | 304° |
| 2026-05-05 15:38 | 60.20249 | 16.31026 | 1508 ft | 113 kts | 304° |
| 2026-05-05 15:38 | 60.20694 | 16.29718 | 1507 ft | 113 kts | 304° |
| 2026-05-05 15:38 | 60.21135 | 16.28419 | 1507 ft | 113 kts | 304° |
| 2026-05-05 15:39 | 60.21578 | 16.27114 | 1507 ft | 113 kts | 304° |
| 2026-05-05 15:39 | 60.22020 | 16.25813 | 1507 ft | 113 kts | 304° |
| 2026-05-05 15:39 | 60.22463 | 16.24509 | 1507 ft | 113 kts | 304° |
| 2026-05-05 15:39 | 60.22904 | 16.23209 | 1507 ft | 113 kts | 304° |
| 2026-05-05 15:40 | 60.23347 | 16.21904 | 1507 ft | 113 kts | 304° |
| 2026-05-05 15:40 | 60.23790 | 16.20601 | 1507 ft | 113 kts | 304° |
| 2026-05-05 15:40 | 60.24232 | 16.19298 | 1507 ft | 113 kts | 304° |
| 2026-05-05 15:40 | 60.24673 | 16.17997 | 1507 ft | 113 kts | 304° |
| 2026-05-05 15:41 | 60.25116 | 16.16693 | 1507 ft | 113 kts | 304° |
| 2026-05-05 15:41 | 60.25558 | 16.15389 | 1507 ft | 113 kts | 304° |
| 2026-05-05 15:41 | 60.26002 | 16.14082 | 1508 ft | 113 kts | 304° |
| 2026-05-05 15:41 | 60.26444 | 16.12777 | 1508 ft | 113 kts | 304° |
| 2026-05-05 15:42 | 60.26888 | 16.11469 | 1507 ft | 113 kts | 304° |
| 2026-05-05 15:42 | 60.27321 | 16.10150 | 1507 ft | 113 kts | 303° |
| 2026-05-05 15:42 | 60.27751 | 16.08830 | 1508 ft | 113 kts | 303° |
| 2026-05-05 15:42 | 60.28183 | 16.07505 | 1507 ft | 113 kts | 303° |
| 2026-05-05 15:43 | 60.28611 | 16.06188 | 1507 ft | 113 kts | 303° |
| 2026-05-05 15:43 | 60.29044 | 16.04859 | 1507 ft | 113 kts | 303° |
| 2026-05-05 15:43 | 60.29474 | 16.03538 | 1507 ft | 113 kts | 303° |
| 2026-05-05 15:43 | 60.29904 | 16.02215 | 1507 ft | 113 kts | 303° |
| 2026-05-05 15:44 | 60.30256 | 16.01135 | 1502 ft | 114 kts | 303° |
| 2026-05-05 15:44 | 60.30694 | 15.99795 | 1509 ft | 114 kts | 303° |
| 2026-05-05 15:44 | 60.31131 | 15.98457 | 1509 ft | 115 kts | 303° |
| 2026-05-05 15:44 | 60.31569 | 15.97116 | 1508 ft | 115 kts | 303° |
| 2026-05-05 15:45 | 60.32010 | 15.95766 | 1507 ft | 115 kts | 303° |
| 2026-05-05 15:45 | 60.32451 | 15.94417 | 1507 ft | 115 kts | 303° |
| 2026-05-05 15:45 | 60.32890 | 15.93071 | 1507 ft | 115 kts | 303° |
| 2026-05-05 15:45 | 60.33332 | 15.91720 | 1507 ft | 115 kts | 303° |
| 2026-05-05 15:46 | 60.33772 | 15.90371 | 1508 ft | 115 kts | 303° |
| 2026-05-05 15:46 | 60.34214 | 15.89018 | 1508 ft | 115 kts | 303° |
| 2026-05-05 15:46 | 60.34655 | 15.87668 | 1507 ft | 115 kts | 303° |
| 2026-05-05 15:46 | 60.35092 | 15.86314 | 1507 ft | 115 kts | 302° |
| 2026-05-05 15:47 | 60.35519 | 15.84955 | 1508 ft | 115 kts | 302° |
| 2026-05-05 15:47 | 60.35949 | 15.83583 | 1508 ft | 115 kts | 302° |
| 2026-05-05 15:47 | 60.36377 | 15.82217 | 1507 ft | 115 kts | 302° |
| 2026-05-05 15:47 | 60.36806 | 15.80849 | 1507 ft | 115 kts | 302° |
| 2026-05-05 15:48 | 60.37234 | 15.79483 | 1507 ft | 115 kts | 302° |
| 2026-05-05 15:48 | 60.37662 | 15.78115 | 1507 ft | 115 kts | 302° |
| 2026-05-05 15:48 | 60.38090 | 15.76749 | 1507 ft | 115 kts | 302° |
| 2026-05-05 15:48 | 60.38518 | 15.75384 | 1507 ft | 115 kts | 302° |
| 2026-05-05 15:49 | 60.38938 | 15.74002 | 1507 ft | 115 kts | 301° |
| 2026-05-05 15:49 | 60.39354 | 15.72618 | 1507 ft | 115 kts | 301° |
| 2026-05-05 15:49 | 60.39769 | 15.71238 | 1507 ft | 115 kts | 301° |
| 2026-05-05 15:49 | 60.40134 | 15.69991 | 1507 ft | 115 kts | 300° |
| 2026-05-05 15:50 | 60.40399 | 15.68900 | 1496 ft | 106 kts | 285° |
| 2026-05-05 15:50 | 60.40398 | 15.67506 | 1498 ft | 94 kts | 271° |
| 2026-05-05 15:50 | 60.40376 | 15.66214 | 1486 ft | 92 kts | 262° |
| 2026-05-05 15:50 | 60.40200 | 15.65004 | 1490 ft | 87 kts | 256° |
| 2026-05-05 15:51 | 60.40024 | 15.63849 | 1479 ft | 84 kts | 256° |
| 2026-05-05 15:51 | 60.39854 | 15.62737 | 1474 ft | 81 kts | 256° |
| 2026-05-05 15:51 | 60.39690 | 15.61671 | 1478 ft | 79 kts | 256° |
| 2026-05-05 15:51 | 60.39528 | 15.60625 | 1485 ft | 77 kts | 256° |
| 2026-05-05 15:52 | 60.39369 | 15.59604 | 1491 ft | 76 kts | 256° |
| 2026-05-05 15:52 | 60.39210 | 15.58591 | 1495 ft | 76 kts | 256° |
| 2026-05-05 15:52 | 60.39054 | 15.57594 | 1481 ft | 74 kts | 256° |
| 2026-05-05 15:52 | 60.38971 | 15.56593 | 1428 ft | 67 kts | 291° |
| 2026-05-05 15:53 | 60.39365 | 15.56132 | 1216 ft | 81 kts | 352° |
| 2026-05-05 15:53 | 60.39867 | 15.55892 | 1138 ft | 74 kts | 338° |
| 2026-05-05 15:53 | 60.40355 | 15.55474 | 1016 ft | 76 kts | 325° |
| 2026-05-05 15:53 | 60.40770 | 15.54849 | 913 ft | 72 kts | 317° |
| 2026-05-05 15:54 | 60.41101 | 15.54108 | 737 ft | 72 kts | 308° |
| 2026-05-05 15:54 | 60.41429 | 15.53296 | 594 ft | 72 kts | 309° |
| 2026-05-05 15:54 | 60.41736 | 15.52590 | 507 ft | 59 kts | 311° |
| 2026-05-05 15:54 | 60.41943 | 15.52128 | 507 ft | 35 kts | 311° |
| 2026-05-05 15:55 | 60.42075 | 15.51826 | 507 ft | 22 kts | 311° |
| 2026-05-05 15:55 | 60.42152 | 15.51650 | 507 ft | 13 kts | 313° |
| 2026-05-05 15:55 | 60.42214 | 15.51510 | 507 ft | 15 kts | 311° |
| 2026-05-05 15:55 | 60.42290 | 15.51328 | 507 ft | 19 kts | 310° |
| 2026-05-05 15:56 | 60.42380 | 15.51151 | 507 ft | 14 kts | 313° |
| 2026-05-05 15:56 | 60.42422 | 15.51061 | 507 ft | 3 kts | 314° |
| 2026-05-05 15:56 | 60.42431 | 15.51041 | 507 ft | 5 kts | 314° |
| 2026-05-05 15:56 | 60.42471 | 15.50957 | 507 ft | 11 kts | 309° |
| 2026-05-05 15:57 | 60.42534 | 15.50814 | 507 ft | 18 kts | 312° |
| 2026-05-05 15:57 | 60.42615 | 15.50635 | 507 ft | 13 kts | 312° |
| 2026-05-05 15:57 | 60.42659 | 15.50539 | 507 ft | 8 kts | 313° |
| 2026-05-05 15:57 | 60.42702 | 15.50440 | 507 ft | 11 kts | 313° |
| 2026-05-05 15:58 | 60.42774 | 15.50394 | 507 ft | 15 kts | 41° |
| 2026-05-05 15:58 | 60.42830 | 15.50500 | 507 ft | 7 kts | 42° |
| 2026-05-05 15:58 | 60.42906 | 15.50586 | 507 ft | 12 kts | 17° |
| 2026-05-05 15:58 | 60.42957 | 15.50594 | 507 ft | 12 kts | 346° |
| 2026-05-05 15:59 | 60.43034 | 15.50500 | 507 ft | 0 kts | 321° |